Time;durP1;ratioP1;P1;durP2;ratioP2;P2;SDS_P1;SDS_P2;PMS_P1;PMS_P2;Temp;Humidity;BMP_temperature;BMP_pressure;BME280_temperature;BME280_humidity;BME280_pressure;Samples;Min_cycle;Max_cycle;Signal;HPM_P1;HPM_P2
2023/04/03 00:01:24;;;;;;;;;;;21.00;99.90;;;;;;5099559;28;19915;-70
2023/04/03 00:03:51;;;;;;;;;;;21.10;99.90;;;;;;5094695;28;20381;-69
2023/04/03 00:06:18;;;;;;;;;;;21.10;99.90;;;;;;5081127;28;19912;-69
2023/04/03 00:08:44;;;;;;;;;;;21.20;99.90;;;;;;5088048;28;20448;-71
2023/04/03 00:11:15;;;;;;;;;;;21.20;99.90;;;;;;5095185;28;20506;-70
2023/04/03 00:13:41;;;;;;;;;;;21.20;99.90;;;;;;5094470;28;19923;-71
2023/04/03 00:16:09;;;;;;;;;;;21.10;99.90;;;;;;5083427;28;19935;-71
2023/04/03 00:18:36;;;;;;;;;;;21.10;99.90;;;;;;5087977;28;19947;-68
2023/04/03 00:21:03;;;;;;;;;;;21.00;99.90;;;;;;5093569;28;19984;-67
2023/04/03 00:23:29;;;;;;;;;;;21.00;99.90;;;;;;5099968;28;20299;-71
2023/04/03 00:25:56;;;;;;;;;;;21.00;99.90;;;;;;5094398;28;20253;-70
2023/04/03 00:28:23;;;;;;;;;;;20.90;99.90;;;;;;5086829;28;19928;-70
2023/04/03 00:30:50;;;;;;;;;;;20.90;99.90;;;;;;5092786;28;19915;-69
2023/04/03 00:33:21;;;;;;;;;;;20.90;99.90;;;;;;5097727;28;19988;-69
2023/04/03 00:35:48;;;;;;;;;;;21.00;99.90;;;;;;5086572;28;20380;-68
2023/04/03 00:38:15;;;;;;;;;;;21.00;99.90;;;;;;5099679;28;19999;-70
2023/04/03 00:40:43;;;;;;;;;;;21.10;99.90;;;;;;5097924;28;19988;-69
2023/04/03 00:43:14;;;;;;;;;;;21.20;99.90;;;;;;5090336;28;19919;-70
2023/04/03 00:45:42;;;;;;;;;;;21.20;99.90;;;;;;5094612;28;19947;-69
2023/04/03 00:48:12;;;;;;;;;;;21.40;99.90;;;;;;5080379;28;19924;-69
2023/04/03 00:50:40;;;;;;;;;;;21.70;99.90;;;;;;5092424;28;19916;-72
2023/04/03 00:53:07;;;;;;;;;;;21.90;99.90;;;;;;5088649;28;19919;-70
2023/04/03 00:55:35;;;;;;;;;;;21.70;99.90;;;;;;5097179;28;19912;-71
2023/04/03 00:58:02;;;;;;;;;;;21.80;99.90;;;;;;5083496;28;19955;-69
2023/04/03 01:00:29;;;;;;;;;;;21.80;99.90;;;;;;5092777;28;19916;-69
2023/04/03 01:02:56;;;;;;;;;;;21.90;99.90;;;;;;5098461;28;19910;-69
2023/04/03 01:05:23;;;;;;;;;;;22.10;99.90;;;;;;5099710;28;19914;-70
2023/04/03 01:07:51;;;;;;;;;;;22.40;99.90;;;;;;5097329;28;19919;-72
2023/04/03 01:10:20;;;;;;;;;;;22.50;99.90;;;;;;5097248;28;19914;-68
2023/04/03 01:12:48;;;;;;;;;;;22.60;99.90;;;;;;5098645;28;20390;-71
2023/04/03 01:15:17;;;;;;;;;;;22.70;99.90;;;;;;5093160;28;19965;-71
2023/04/03 01:17:45;;;;;;;;;;;22.90;99.90;;;;;;5080654;28;19908;-68
2023/04/03 01:20:12;;;;;;;;;;;23.00;99.90;;;;;;5077449;28;19912;-70
2023/04/03 01:22:51;;;;;;;;;;;23.20;99.90;;;;;;5096832;28;20322;-67
2023/04/03 01:25:18;;;;;;;;;;;23.30;99.90;;;;;;5099529;28;19914;-69
2023/04/03 01:27:45;;;;;;;;;;;23.40;99.90;;;;;;5101559;27;19964;-69
2023/04/03 01:30:13;;;;;;;;;;;23.50;99.90;;;;;;5082120;28;20384;-68
2023/04/03 01:32:39;;;;;;;;;;;23.50;99.90;;;;;;5081300;28;19908;-70
2023/04/03 01:35:08;;;;;;;;;;;23.70;99.90;;;;;;5082827;28;20006;-67
2023/04/03 01:37:35;;;;;;;;;;;23.90;99.90;;;;;;5098875;28;19918;-70
2023/04/03 01:40:02;;;;;;;;;;;24.00;99.90;;;;;;5097434;28;19927;-66
2023/04/03 01:42:29;;;;;;;;;;;24.30;99.90;;;;;;5091107;28;20007;-70
2023/04/03 01:44:56;;;;;;;;;;;24.50;99.90;;;;;;5086392;28;19907;-69
2023/04/03 01:47:23;;;;;;;;;;;24.60;99.90;;;;;;5096680;28;19916;-69
2023/04/03 01:49:49;;;;;;;;;;;24.60;99.90;;;;;;5084694;28;20317;-72
2023/04/03 01:52:16;;;;;;;;;;;24.60;99.90;;;;;;5076336;28;19976;-70
2023/04/03 01:54:43;;;;;;;;;;;24.70;99.90;;;;;;5078416;28;19904;-72
2023/04/03 01:57:10;;;;;;;;;;;24.90;99.90;;;;;;5094457;28;19916;-71
2023/04/03 01:59:36;;;;;;;;;;;24.90;99.90;;;;;;5098139;28;19908;-69
2023/04/03 02:02:03;;;;;;;;;;;24.80;99.90;;;;;;5091052;28;19919;-71
2023/04/03 02:04:30;;;;;;;;;;;24.90;99.90;;;;;;5087163;28;20079;-70
2023/04/03 02:06:56;;;;;;;;;;;25.10;99.90;;;;;;5095552;28;19912;-70
2023/04/03 02:09:23;;;;;;;;;;;25.40;99.90;;;;;;5090136;28;19920;-71
2023/04/03 02:11:49;;;;;;;;;;;25.60;99.90;;;;;;5097694;28;19916;-70
2023/04/03 02:14:16;;;;;;;;;;;25.90;99.90;;;;;;5084310;28;19920;-70
2023/04/03 02:16:43;;;;;;;;;;;26.10;99.90;;;;;;5078542;28;19908;-72
2023/04/03 02:19:09;;;;;;;;;;;26.30;99.90;;;;;;5078662;28;19970;-71
2023/04/03 02:21:36;;;;;;;;;;;26.40;99.90;;;;;;5094238;28;19914;-72
2023/04/03 02:24:03;;;;;;;;;;;26.50;99.90;;;;;;5097122;28;20018;-71
2023/04/03 02:26:29;;;;;;;;;;;26.30;99.90;;;;;;5078371;28;20005;-71
2023/04/03 02:28:56;;;;;;;;;;;26.20;99.90;;;;;;5074366;28;19928;-70
2023/04/03 02:31:23;;;;;;;;;;;26.40;99.90;;;;;;5093676;28;19911;-72
2023/04/03 02:33:50;;;;;;;;;;;26.50;99.90;;;;;;5098119;28;19912;-73
2023/04/03 02:36:17;;;;;;;;;;;26.70;99.90;;;;;;5095283;28;19961;-71
2023/04/03 02:38:44;;;;;;;;;;;26.70;99.90;;;;;;5094498;28;19916;-72
2023/04/03 02:41:11;;;;;;;;;;;26.90;99.90;;;;;;5098619;28;20360;-70
2023/04/03 02:43:38;;;;;;;;;;;27.20;99.40;;;;;;5082300;28;20705;-72
2023/04/03 02:46:05;;;;;;;;;;;27.40;99.80;;;;;;5101911;28;19911;-72
2023/04/03 02:48:31;;;;;;;;;;;27.80;98.80;;;;;;5097793;28;19939;-70
2023/04/03 02:50:58;;;;;;;;;;;27.70;98.70;;;;;;5082220;28;19915;-70
2023/04/03 02:53:25;;;;;;;;;;;28.50;97.70;;;;;;5080869;28;19953;-71
2023/04/03 02:55:51;;;;;;;;;;;29.50;95.70;;;;;;5101990;28;19947;-70
2023/04/03 02:58:18;;;;;;;;;;;30.30;95.30;;;;;;5086493;28;19916;-72
2023/04/03 03:00:45;;;;;;;;;;;31.50;94.30;;;;;;5098440;28;20726;-71
2023/04/03 03:03:13;;;;;;;;;;;32.50;91.10;;;;;;5100689;28;19915;-71
2023/04/03 03:05:40;;;;;;;;;;;33.00;90.70;;;;;;5099891;28;19923;-70
2023/04/03 03:08:06;;;;;;;;;;;33.80;88.60;;;;;;5102228;28;19919;-70
2023/04/03 03:10:33;;;;;;;;;;;34.50;85.50;;;;;;5098559;28;19994;-72
2023/04/03 03:13:00;;;;;;;;;;;34.80;83.80;;;;;;5101922;28;19907;-71
2023/04/03 03:15:27;;;;;;;;;;;35.60;82.00;;;;;;5098086;28;19912;-71
2023/04/03 03:17:54;;;;;;;;;;;36.50;80.10;;;;;;5101600;28;19911;-71
2023/04/03 03:20:21;;;;;;;;;;;37.50;77.20;;;;;;5099776;28;19923;-69
2023/04/03 03:22:47;;;;;;;;;;;35.80;78.70;;;;;;5094132;28;19912;-70
2023/04/03 03:25:14;;;;;;;;;;;33.70;83.90;;;;;;5097272;28;19915;-68
2023/04/03 03:27:40;;;;;;;;;;;32.40;86.40;;;;;;5078962;28;19908;-71
2023/04/03 03:30:07;;;;;;;;;;;31.50;87.90;;;;;;5085514;28;20372;-72
2023/04/03 03:32:34;;;;;;;;;;;31.10;90.60;;;;;;5099550;28;19907;-72
2023/04/03 03:35:01;;;;;;;;;;;31.70;90.50;;;;;;5100437;28;19915;-73
2023/04/03 03:37:28;;;;;;;;;;;33.00;87.30;;;;;;5098937;28;19952;-71
2023/04/03 03:39:55;;;;;;;;;;;34.20;85.30;;;;;;5096198;28;19972;-71
2023/04/03 03:42:22;;;;;;;;;;;34.10;81.70;;;;;;5080768;28;19916;-72
2023/04/03 03:44:48;;;;;;;;;;;34.30;80.70;;;;;;5091400;28;19919;-71
2023/04/03 03:47:15;;;;;;;;;;;33.60;81.50;;;;;;5100213;28;19908;-69
2023/04/03 03:49:42;;;;;;;;;;;35.40;78.80;;;;;;5091510;28;19923;-70
2023/04/03 03:52:10;;;;;;;;;;;36.70;78.50;;;;;;5099151;28;19914;-70
2023/04/03 03:54:37;;;;;;;;;;;38.30;75.10;;;;;;5098119;28;19912;-71
2023/04/03 03:57:04;;;;;;;;;;;39.20;73.40;;;;;;5100774;28;20048;-69
2023/04/03 03:59:31;;;;;;;;;;;38.90;72.50;;;;;;5098833;28;19908;-71
2023/04/03 04:01:58;;;;;;;;;;;39.40;70.80;;;;;;5099785;28;20002;-72
2023/04/03 04:04:24;;;;;;;;;;;38.80;69.40;;;;;;5099342;28;20404;-68
2023/04/03 04:06:51;;;;;;;;;;;37.80;68.90;;;;;;5098625;28;20376;-70
2023/04/03 04:09:18;;;;;;;;;;;37.50;70.00;;;;;;5095656;28;19923;-70
2023/04/03 04:11:45;;;;;;;;;;;37.40;70.90;;;;;;5097396;28;20505;-69
2023/04/03 04:14:13;;;;;;;;;;;37.90;70.10;;;;;;5099675;28;20188;-70
2023/04/03 04:16:39;;;;;;;;;;;38.50;68.30;;;;;;5096642;27;19912;-72
2023/04/03 04:19:06;;;;;;;;;;;37.70;67.70;;;;;;5099645;28;20632;-71
2023/04/03 04:21:33;;;;;;;;;;;36.80;70.30;;;;;;5098719;28;19912;-71
2023/04/03 04:23:59;;;;;;;;;;;37.20;68.70;;;;;;5100538;28;19908;-69
2023/04/03 04:26:26;;;;;;;;;;;37.60;69.40;;;;;;5098378;28;19912;-70
2023/04/03 04:28:53;;;;;;;;;;;37.80;67.20;;;;;;5098030;28;20776;-69
2023/04/03 04:31:19;;;;;;;;;;;37.40;68.50;;;;;;5079259;28;19908;-72
2023/04/03 04:33:46;;;;;;;;;;;38.10;68.20;;;;;;5083344;28;19919;-72
2023/04/03 04:36:14;;;;;;;;;;;37.50;68.80;;;;;;5099157;28;19912;-73
2023/04/03 04:38:41;;;;;;;;;;;37.80;67.70;;;;;;5097948;28;19912;-73
2023/04/03 04:41:08;;;;;;;;;;;36.10;70.40;;;;;;5096070;28;19927;-70
2023/04/03 04:43:35;;;;;;;;;;;35.70;71.80;;;;;;5082040;28;20002;-70
2023/04/03 04:46:02;;;;;;;;;;;36.40;71.20;;;;;;5097776;28;19923;-69
2023/04/03 04:48:29;;;;;;;;;;;36.80;71.20;;;;;;5098921;28;20056;-70
2023/04/03 04:50:56;;;;;;;;;;;36.60;72.40;;;;;;5086289;28;19979;-69
2023/04/03 04:53:22;;;;;;;;;;;36.30;72.70;;;;;;5099403;28;19922;-70
2023/04/03 04:55:49;;;;;;;;;;;36.60;70.90;;;;;;5097762;28;19961;-70
2023/04/03 04:58:16;;;;;;;;;;;37.10;71.30;;;;;;5099505;28;19908;-72
2023/04/03 05:00:42;;;;;;;;;;;38.30;69.20;;;;;;5091871;28;19908;-69
2023/04/03 05:03:09;;;;;;;;;;;38.90;68.40;;;;;;5099337;28;19916;-70
2023/04/03 05:05:36;;;;;;;;;;;38.80;68.80;;;;;;5098789;28;19908;-70
2023/04/03 05:08:03;;;;;;;;;;;37.90;69.50;;;;;;5097128;28;20014;-70
2023/04/03 05:10:30;;;;;;;;;;;38.50;68.90;;;;;;5091364;28;19955;-70
2023/04/03 05:12:57;;;;;;;;;;;38.00;69.50;;;;;;5097327;28;19907;-68
2023/04/03 05:15:23;;;;;;;;;;;37.70;69.10;;;;;;5098606;28;19911;-68
2023/04/03 05:17:50;;;;;;;;;;;37.50;70.50;;;;;;5098333;28;19908;-68
2023/04/03 05:20:17;;;;;;;;;;;37.70;69.00;;;;;;5088433;28;20318;-68
2023/04/03 05:22:44;;;;;;;;;;;37.60;68.90;;;;;;5099059;28;19915;-69
2023/04/03 05:25:10;;;;;;;;;;;37.50;69.80;;;;;;5096897;28;19911;-69
2023/04/03 05:27:37;;;;;;;;;;;38.10;69.00;;;;;;5097811;28;20125;-69
2023/04/03 05:30:04;;;;;;;;;;;37.80;69.20;;;;;;5095620;28;20010;-69
2023/04/03 05:32:30;;;;;;;;;;;37.20;68.70;;;;;;5098485;28;19984;-69
2023/04/03 05:34:57;;;;;;;;;;;36.90;69.80;;;;;;5099462;28;19914;-68
2023/04/03 05:37:24;;;;;;;;;;;36.30;71.60;;;;;;5096178;28;20274;-68
2023/04/03 05:39:50;;;;;;;;;;;36.70;70.00;;;;;;5098120;28;19926;-71
2023/04/03 05:42:17;;;;;;;;;;;36.60;67.80;;;;;;5097856;28;19961;-68
2023/04/03 05:44:45;;;;;;;;;;;36.00;70.90;;;;;;5076896;28;20380;-68
2023/04/03 05:47:12;;;;;;;;;;;35.80;70.10;;;;;;5097323;28;19911;-68
2023/04/03 05:49:41;;;;;;;;;;;35.90;68.70;;;;;;5096310;28;20280;-68
2023/04/03 05:52:27;;;;;;;;;;;35.60;69.60;;;;;;5088193;28;20009;-68
2023/04/03 05:54:54;;;;;;;;;;;35.30;70.70;;;;;;5093584;27;19946;-70
2023/04/03 05:57:21;;;;;;;;;;;34.10;73.40;;;;;;5097079;28;20747;-69
2023/04/03 05:59:48;;;;;;;;;;;33.60;74.20;;;;;;5078412;28;20327;-70
2023/04/03 06:02:18;;;;;;;;;;;33.20;74.00;;;;;;5097524;28;19912;-69
2023/04/03 06:04:45;;;;;;;;;;;31.90;76.40;;;;;;5094733;28;19919;-70
2023/04/03 06:07:12;;;;;;;;;;;32.00;78.90;;;;;;5096299;28;19989;-70
2023/04/03 06:09:39;;;;;;;;;;;31.60;77.20;;;;;;5094295;28;19925;-70
2023/04/03 06:12:06;;;;;;;;;;;30.50;79.20;;;;;;5095960;28;19914;-70
2023/04/03 06:14:33;;;;;;;;;;;29.70;81.50;;;;;;5096746;28;19908;-70
2023/04/03 06:16:59;;;;;;;;;;;29.70;83.50;;;;;;5093233;28;20215;-70
2023/04/03 06:19:26;;;;;;;;;;;29.70;84.90;;;;;;5095723;28;20380;-70
2023/04/03 06:21:53;;;;;;;;;;;29.60;85.30;;;;;;5094172;28;19908;-70
2023/04/03 06:24:21;;;;;;;;;;;28.90;86.50;;;;;;5097235;28;19911;-69
2023/04/03 06:26:49;;;;;;;;;;;28.50;87.70;;;;;;5094775;28;19912;-71
2023/04/03 06:29:16;;;;;;;;;;;28.80;87.00;;;;;;5091724;28;20390;-71
2023/04/03 06:31:42;;;;;;;;;;;30.20;84.60;;;;;;5100412;27;19919;-71
2023/04/03 06:34:10;;;;;;;;;;;31.40;81.50;;;;;;5096505;28;19912;-71
2023/04/03 06:36:37;;;;;;;;;;;31.90;78.60;;;;;;5092988;28;19912;-69
2023/04/03 06:39:04;;;;;;;;;;;32.40;77.30;;;;;;5093097;28;20601;-71
2023/04/03 06:41:30;;;;;;;;;;;32.60;77.30;;;;;;5094804;28;19923;-70
2023/04/03 06:43:57;;;;;;;;;;;33.10;77.00;;;;;;5095390;28;20016;-69
2023/04/03 06:46:25;;;;;;;;;;;33.30;76.00;;;;;;5093514;28;20636;-71
2023/04/03 06:48:52;;;;;;;;;;;33.00;75.90;;;;;;5094623;28;19927;-71
2023/04/03 06:51:18;;;;;;;;;;;32.30;77.90;;;;;;5094082;28;19916;-70
2023/04/03 06:53:45;;;;;;;;;;;32.20;78.40;;;;;;5095751;28;19912;-69
2023/04/03 06:56:12;;;;;;;;;;;31.70;78.40;;;;;;5095878;28;19915;-72
2023/04/03 06:58:39;;;;;;;;;;;31.00;80.60;;;;;;5095366;28;19963;-68
2023/04/03 07:01:05;;;;;;;;;;;30.10;81.90;;;;;;5092215;28;20225;-69
2023/04/03 07:03:32;;;;;;;;;;;28.90;84.60;;;;;;5095650;28;20492;-70
2023/04/03 07:05:59;;;;;;;;;;;28.00;86.60;;;;;;5095491;28;20284;-72
2023/04/03 07:08:26;;;;;;;;;;;27.20;89.50;;;;;;5093464;28;19920;-73
2023/04/03 07:10:52;;;;;;;;;;;26.70;90.90;;;;;;5093319;28;20296;-72
2023/04/03 07:13:19;;;;;;;;;;;26.10;91.50;;;;;;5090790;28;20346;-72
2023/04/03 07:15:46;;;;;;;;;;;25.50;92.30;;;;;;5096279;28;19946;-71
2023/04/03 07:18:12;;;;;;;;;;;25.00;93.50;;;;;;5095417;28;19911;-73
2023/04/03 07:20:40;;;;;;;;;;;24.60;94.90;;;;;;5095397;28;20041;-73
2023/04/03 07:23:06;;;;;;;;;;;24.50;95.90;;;;;;5095094;28;19943;-72
2023/04/03 07:25:33;;;;;;;;;;;24.20;96.40;;;;;;5095907;28;19912;-71
2023/04/03 07:28:00;;;;;;;;;;;24.00;97.50;;;;;;5096365;28;20424;-71
2023/04/03 07:30:27;;;;;;;;;;;23.80;98.00;;;;;;5098383;28;20271;-69
2023/04/03 07:32:53;;;;;;;;;;;23.60;98.90;;;;;;5097165;28;19918;-72
2023/04/03 07:35:20;;;;;;;;;;;23.40;99.60;;;;;;5098434;28;19912;-71
2023/04/03 07:37:46;;;;;;;;;;;23.20;99.90;;;;;;5099654;28;20281;-74
2023/04/03 07:40:13;;;;;;;;;;;23.00;99.90;;;;;;5097952;28;19923;-71
2023/04/03 07:42:40;;;;;;;;;;;23.00;99.90;;;;;;5099304;28;19908;-71
2023/04/03 07:45:06;;;;;;;;;;;22.90;99.90;;;;;;5098004;28;19964;-69
2023/04/03 07:47:33;;;;;;;;;;;22.70;99.90;;;;;;5099473;28;19915;-70
2023/04/03 07:50:00;;;;;;;;;;;22.70;99.90;;;;;;5098642;28;20007;-70
2023/04/03 07:52:26;;;;;;;;;;;22.60;99.90;;;;;;5098896;28;19998;-69
2023/04/03 07:54:53;;;;;;;;;;;22.50;99.90;;;;;;5098949;28;20003;-71
2023/04/03 07:57:20;;;;;;;;;;;22.40;99.90;;;;;;5096347;28;19927;-70
2023/04/03 07:59:46;;;;;;;;;;;22.30;99.90;;;;;;5099377;27;19978;-71
2023/04/03 08:02:13;;;;;;;;;;;22.20;99.90;;;;;;5095425;27;19977;-71
2023/04/03 08:04:40;;;;;;;;;;;22.10;99.90;;;;;;5085768;28;19965;-71
2023/04/03 08:07:06;;;;;;;;;;;22.00;99.90;;;;;;5100171;28;19930;-71
2023/04/03 08:09:33;;;;;;;;;;;22.00;99.90;;;;;;5079217;28;20143;-72
2023/04/03 08:12:00;;;;;;;;;;;21.90;99.90;;;;;;5099644;27;19912;-70
2023/04/03 08:14:27;;;;;;;;;;;21.80;99.90;;;;;;5089069;28;19953;-73
2023/04/03 08:16:54;;;;;;;;;;;21.90;99.90;;;;;;5097232;28;20006;-70
2023/04/03 08:19:20;;;;;;;;;;;21.80;99.90;;;;;;5080369;28;19916;-72
2023/04/03 08:21:47;;;;;;;;;;;21.80;99.90;;;;;;5095496;28;19919;-71
2023/04/03 08:24:14;;;;;;;;;;;21.70;99.90;;;;;;5088619;28;19915;-72
2023/04/03 08:26:40;;;;;;;;;;;21.70;99.90;;;;;;5084515;27;19912;-71
2023/04/03 08:29:07;;;;;;;;;;;21.70;99.90;;;;;;5078724;28;20246;-71
2023/04/03 08:31:33;;;;;;;;;;;21.60;99.90;;;;;;5075234;28;19912;-71
2023/04/03 08:34:00;;;;;;;;;;;21.50;99.90;;;;;;5092732;28;20358;-71
2023/04/03 08:36:28;;;;;;;;;;;21.60;99.90;;;;;;5092672;28;19919;-70
2023/04/03 08:38:56;;;;;;;;;;;21.50;99.90;;;;;;5084797;28;19909;-72
2023/04/03 08:41:30;;;;;;;;;;;21.60;99.90;;;;;;5090012;27;20443;-70
2023/04/03 08:44:01;;;;;;;;;;;21.60;99.90;;;;;;5093063;28;19915;-71
2023/04/03 08:46:47;;;;;;;;;;;21.60;99.90;;;;;;5092624;27;19960;-71
2023/04/03 08:49:21;;;;;;;;;;;21.60;99.90;;;;;;5081734;28;20007;-71
2023/04/03 08:51:50;;;;;;;;;;;21.50;99.90;;;;;;5080841;27;19912;-71
2023/04/03 08:54:24;;;;;;;;;;;21.50;99.90;;;;;;5078573;28;19908;-72
2023/04/03 08:56:51;;;;;;;;;;;21.50;99.90;;;;;;5090015;28;19920;-71
2023/04/03 08:59:23;;;;;;;;;;;21.60;99.90;;;;;;5083679;28;19923;-71
2023/04/03 09:01:51;;;;;;;;;;;21.70;99.90;;;;;;5094494;27;19912;-69
2023/04/03 09:04:18;;;;;;;;;;;21.70;99.90;;;;;;5098712;28;20392;-71
2023/04/03 09:06:53;;;;;;;;;;;21.80;99.90;;;;;;5098426;28;19912;-72
2023/04/03 09:09:19;;;;;;;;;;;21.70;99.90;;;;;;5080182;28;19969;-70
2023/04/03 09:11:46;;;;;;;;;;;21.70;99.90;;;;;;5078104;28;19908;-71
2023/04/03 09:14:32;;;;;;;;;;;21.70;99.90;;;;;;5077381;28;19912;-71
2023/04/03 09:17:00;;;;;;;;;;;21.70;99.90;;;;;;5077089;28;20361;-71
2023/04/03 09:19:33;;;;;;;;;;;21.60;99.90;;;;;;5087994;28;19908;-71
2023/04/03 09:22:19;;;;;;;;;;;21.50;99.90;;;;;;5078294;28;19911;-71
2023/04/03 09:24:46;;;;;;;;;;;21.50;99.90;;;;;;5078723;28;20048;-71
2023/04/03 09:27:13;;;;;;;;;;;21.50;99.90;;;;;;5098289;28;19911;-69
2023/04/03 09:29:45;;;;;;;;;;;21.50;99.90;;;;;;5085393;28;19916;-71
2023/04/03 09:32:19;;;;;;;;;;;21.50;99.90;;;;;;5098218;28;19912;-71
2023/04/03 09:34:47;;;;;;;;;;;21.40;99.90;;;;;;5097558;28;19927;-69
2023/04/03 09:37:33;;;;;;;;;;;21.40;99.90;;;;;;5098230;28;19949;-70
2023/04/03 09:40:00;;;;;;;;;;;21.50;99.90;;;;;;5084727;28;19927;-69
2023/04/03 09:42:27;;;;;;;;;;;21.50;99.90;;;;;;5080508;28;19912;-70
2023/04/03 09:45:01;;;;;;;;;;;21.40;99.90;;;;;;5080810;28;19919;-69
2023/04/03 09:47:27;;;;;;;;;;;21.40;99.90;;;;;;5097811;28;19961;-69
2023/04/03 09:50:15;;;;;;;;;;;21.40;99.90;;;;;;5085854;27;21176;-69
2023/04/03 09:52:43;;;;;;;;;;;21.40;99.90;;;;;;5086544;28;20379;-68
2023/04/03 09:55:27;;;;;;;;;;;21.40;99.90;;;;;;5083234;28;19912;-69
2023/04/03 09:58:04;;;;;;;;;;;21.50;99.90;;;;;;5097330;28;19998;-71
2023/04/03 10:00:38;;;;;;;;;;;21.50;99.90;;;;;;5078290;28;20377;-70
2023/04/03 10:03:05;;;;;;;;;;;21.40;99.90;;;;;;5075653;28;19915;-72
2023/04/03 10:05:39;;;;;;;;;;;21.50;99.90;;;;;;5085443;28;19915;-71
2023/04/03 10:08:08;;;;;;;;;;;21.50;99.90;;;;;;5094609;28;20417;-68
2023/04/03 10:10:35;;;;;;;;;;;21.50;99.90;;;;;;5087314;28;19919;-72
2023/04/03 10:13:12;;;;;;;;;;;21.50;99.90;;;;;;5083908;28;19912;-68
2023/04/03 10:15:46;;;;;;;;;;;21.60;99.90;;;;;;5084981;28;19926;-68
2023/04/03 10:18:25;;;;;;;;;;;21.60;99.90;;;;;;5095332;28;19912;-71
2023/04/03 10:20:53;;;;;;;;;;;21.60;99.90;;;;;;5086091;27;20265;-70
2023/04/03 10:23:33;;;;;;;;;;;21.60;99.90;;;;;;5097232;28;19908;-68
2023/04/03 10:26:10;;;;;;;;;;;21.70;99.90;;;;;;5096858;28;19916;-70
2023/04/03 10:28:51;;;;;;;;;;;21.60;99.90;;;;;;5091595;28;19927;-70
2023/04/03 10:31:36;;;;;;;;;;;21.60;99.90;;;;;;5088406;27;20002;-71
2023/04/03 10:34:05;;;;;;;;;;;21.50;99.90;;;;;;5096990;28;20271;-70
2023/04/03 10:36:32;;;;;;;;;;;21.50;99.90;;;;;;5098104;28;19915;-69
2023/04/03 10:39:11;;;;;;;;;;;21.40;99.90;;;;;;5087714;28;19953;-70
2023/04/03 10:41:43;;;;;;;;;;;21.30;99.90;;;;;;5082847;28;19970;-69
2023/04/03 10:44:19;;;;;;;;;;;21.30;99.90;;;;;;5075526;28;19908;-69
2023/04/03 10:46:49;;;;;;;;;;;21.30;99.90;;;;;;5092528;28;19965;-69
2023/04/03 10:49:22;;;;;;;;;;;21.30;99.90;;;;;;5085438;28;20026;-72
2023/04/03 10:51:52;;;;;;;;;;;21.20;99.90;;;;;;5074470;28;20365;-70
2023/04/03 10:54:39;;;;;;;;;;;21.20;99.90;;;;;;5083267;28;20318;-70
2023/04/03 10:57:10;;;;;;;;;;;21.10;99.90;;;;;;5095297;28;20364;-69
2023/04/03 10:59:51;;;;;;;;;;;21.00;99.90;;;;;;5082736;28;19912;-69
2023/04/03 11:02:37;;;;;;;;;;;21.00;99.90;;;;;;5083702;28;19916;-70
2023/04/03 11:05:13;;;;;;;;;;;20.90;99.90;;;;;;5082380;28;20322;-69
2023/04/03 11:07:42;;;;;;;;;;;20.90;99.90;;;;;;5081861;28;19916;-68
2023/04/03 11:10:44;;;;;;;;;;;20.90;99.90;;;;;;5089243;27;19946;-70
2023/04/03 11:13:29;;;;;;;;;;;20.80;99.90;;;;;;4998972;28;19992;-70
2023/04/03 11:15:57;;;;;;;;;;;20.80;99.90;;;;;;5094519;28;19922;-71
2023/04/03 11:18:44;;;;;;;;;;;20.80;99.90;;;;;;5095596;28;20041;-73
2023/04/03 11:21:17;;;;;;;;;;;20.80;99.90;;;;;;5068861;28;19916;-71
2023/04/03 11:23:44;;;;;;;;;;;20.80;99.90;;;;;;5101643;28;19942;-71
2023/04/03 11:26:22;;;;;;;;;;;20.70;99.90;;;;;;5102005;28;19929;-72
2023/04/03 11:29:03;;;;;;;;;;;20.70;99.90;;;;;;5101138;28;20368;-67
2023/04/03 11:31:38;;;;;;;;;;;20.70;99.90;;;;;;5099295;28;20278;-69
2023/04/03 11:34:12;;;;;;;;;;;20.60;99.90;;;;;;5102241;28;19918;-69
2023/04/03 11:36:43;;;;;;;;;;;20.50;99.90;;;;;;5100234;28;19916;-71
2023/04/03 11:39:28;;;;;;;;;;;20.50;99.90;;;;;;5101617;28;19908;-68
2023/04/03 11:41:55;;;;;;;;;;;20.50;99.90;;;;;;5101555;28;19919;-71
2023/04/03 11:44:38;;;;;;;;;;;20.40;99.90;;;;;;5099309;28;19915;-70
2023/04/03 11:47:07;;;;;;;;;;;20.30;99.90;;;;;;5101743;28;19915;-70
2023/04/03 11:49:59;;;;;;;;;;;20.30;99.90;;;;;;5099118;28;19963;-70
2023/04/03 11:52:42;;;;;;;;;;;20.20;99.90;;;;;;5099365;28;20376;-70
2023/04/03 11:55:12;;;;;;;;;;;20.20;99.90;;;;;;5100933;28;19911;-70
2023/04/03 11:58:05;;;;;;;;;;;20.10;99.90;;;;;;5085342;28;19919;-73
2023/04/03 12:00:50;;;;;;;;;;;20.00;99.90;;;;;;5078367;28;19915;-70
2023/04/03 12:03:29;;;;;;;;;;;20.00;99.90;;;;;;5081377;28;19915;-70
2023/04/03 12:06:13;;;;;;;;;;;19.90;99.90;;;;;;5078133;28;19908;-70
2023/04/03 12:08:40;;;;;;;;;;;19.80;99.90;;;;;;5082804;28;19920;-69
2023/04/03 12:11:13;;;;;;;;;;;19.80;99.90;;;;;;5101255;28;19914;-70
2023/04/03 12:13:55;;;;;;;;;;;19.80;99.90;;;;;;5097707;28;19908;-69
2023/04/03 12:16:21;;;;;;;;;;;19.70;99.90;;;;;;5101372;28;19912;-71
2023/04/03 12:18:55;;;;;;;;;;;19.60;99.90;;;;;;5098810;28;20345;-69
2023/04/03 12:21:23;;;;;;;;;;;19.60;99.90;;;;;;5101228;28;19955;-71
2023/04/03 12:24:08;;;;;;;;;;;19.50;99.90;;;;;;5098399;28;19914;-69
2023/04/03 12:26:34;;;;;;;;;;;19.40;99.90;;;;;;5100471;28;19958;-70
2023/04/03 12:29:10;;;;;;;;;;;19.30;99.90;;;;;;5098752;28;19924;-71
2023/04/03 12:31:42;;;;;;;;;;;19.30;99.90;;;;;;5100384;28;19908;-70
2023/04/03 12:34:09;;;;;;;;;;;19.30;99.90;;;;;;5087357;28;19935;-70
2023/04/03 12:36:54;;;;;;;;;;;19.20;99.90;;;;;;5080369;28;19923;-70
2023/04/03 12:39:39;;;;;;;;;;;19.20;99.90;;;;;;5080813;28;19908;-70
2023/04/03 12:42:18;;;;;;;;;;;19.10;99.90;;;;;;5079420;28;19919;-68
2023/04/03 12:44:50;;;;;;;;;;;19.10;99.90;;;;;;5077813;28;19915;-68
2023/04/03 12:47:28;;;;;;;;;;;19.10;99.90;;;;;;5080410;28;20353;-71
2023/04/03 12:49:56;;;;;;;;;;;18.90;99.90;;;;;;5077678;28;19922;-70
2023/04/03 12:52:30;;;;;;;;;;;19.00;99.90;;;;;;5086850;28;20275;-71
2023/04/03 12:54:58;;;;;;;;;;;18.90;99.90;;;;;;5097735;28;19957;-70
2023/04/03 12:57:26;;;;;;;;;;;18.90;99.90;;;;;;5100911;28;19908;-70
2023/04/03 12:59:53;;;;;;;;;;;18.80;99.90;;;;;;5079948;28;20325;-69
2023/04/03 13:02:24;;;;;;;;;;;18.80;99.90;;;;;;5100380;28;19960;-71
2023/04/03 13:04:57;;;;;;;;;;;18.90;99.90;;;;;;5097345;28;20069;-69
2023/04/03 13:07:25;;;;;;;;;;;18.90;99.90;;;;;;5101021;28;19912;-70
2023/04/03 13:09:59;;;;;;;;;;;18.80;99.90;;;;;;5097263;28;19927;-69
2023/04/03 13:12:26;;;;;;;;;;;18.80;99.90;;;;;;5091382;28;19908;-70
2023/04/03 13:14:54;;;;;;;;;;;18.80;99.90;;;;;;5076465;28;20041;-68
2023/04/03 13:17:21;;;;;;;;;;;18.80;99.90;;;;;;5079557;28;19947;-71
2023/04/03 13:19:48;;;;;;;;;;;18.90;99.90;;;;;;5077591;28;20276;-70
2023/04/03 13:22:32;;;;;;;;;;;18.80;99.90;;;;;;5078883;28;19904;-71
2023/04/03 13:25:02;;;;;;;;;;;18.80;99.90;;;;;;5076638;28;19990;-69
2023/04/03 13:27:30;;;;;;;;;;;18.90;99.90;;;;;;5094977;28;19997;-69
2023/04/03 13:29:58;;;;;;;;;;;18.90;99.90;;;;;;5095755;28;19927;-69
2023/04/03 13:32:27;;;;;;;;;;;18.90;99.90;;;;;;5099419;28;20431;-68
2023/04/03 13:34:53;;;;;;;;;;;19.00;99.90;;;;;;5095797;28;19908;-70
2023/04/03 13:37:29;;;;;;;;;;;19.00;99.90;;;;;;5099265;28;19907;-69
2023/04/03 13:40:10;;;;;;;;;;;19.00;99.90;;;;;;5093792;28;19920;-69
2023/04/03 13:42:40;;;;;;;;;;;19.00;99.90;;;;;;5096649;28;20400;-69
2023/04/03 13:45:27;;;;;;;;;;;18.90;99.90;;;;;;5096661;28;19907;-69
2023/04/03 13:48:07;;;;;;;;;;;18.80;99.90;;;;;;5096068;28;19912;-69
2023/04/03 13:50:33;;;;;;;;;;;18.70;99.90;;;;;;5099711;28;19915;-72
2023/04/03 13:53:11;;;;;;;;;;;18.70;99.90;;;;;;5096484;28;19908;-71
2023/04/03 13:55:52;;;;;;;;;;;18.60;99.90;;;;;;5089475;28;20318;-70
2023/04/03 13:58:25;;;;;;;;;;;18.50;99.90;;;;;;5098309;28;19908;-70
2023/04/03 14:00:54;;;;;;;;;;;18.50;99.90;;;;;;5068185;28;19912;-69
2023/04/03 14:03:25;;;;;;;;;;;18.60;99.90;;;;;;5077962;28;19943;-71
2023/04/03 14:05:53;;;;;;;;;;;18.50;99.90;;;;;;5077342;28;19912;-71
2023/04/03 14:08:20;;;;;;;;;;;18.50;99.90;;;;;;5080892;28;19957;-70
2023/04/03 14:10:47;;;;;;;;;;;18.40;99.90;;;;;;5098756;28;20376;-68
2023/04/03 14:13:15;;;;;;;;;;;18.40;99.90;;;;;;5096031;28;19907;-71
2023/04/03 14:15:42;;;;;;;;;;;18.40;99.90;;;;;;5099401;28;19912;-69
2023/04/03 14:18:17;;;;;;;;;;;18.40;99.90;;;;;;5095900;28;19914;-71
2023/04/03 14:20:44;;;;;;;;;;;18.30;99.90;;;;;;5099002;28;19908;-72
2023/04/03 14:23:10;;;;;;;;;;;18.20;99.90;;;;;;5065189;28;19918;-71
2023/04/03 14:25:38;;;;;;;;;;;18.20;99.90;;;;;;5079026;28;20261;-72
2023/04/03 14:28:12;;;;;;;;;;;18.20;99.90;;;;;;5075306;28;20256;-69
2023/04/03 14:30:39;;;;;;;;;;;18.20;99.90;;;;;;5087203;28;19927;-70